Time;durP1;ratioP1;P1;durP2;ratioP2;P2;SDS_P1;SDS_P2;PMS_P1;PMS_P2;Temp;Humidity;BMP_temperature;BMP_pressure;BME280_temperature;BME280_humidity;BME280_pressure;Samples;Min_cycle;Max_cycle;Signal;HPM_P1;HPM_P2
2021/06/03 00:00:01;;;;;;;6.64;3.56;;;;;;;;;;356569;147;859212;-59
2021/06/03 00:01:03;;;;;;;4.83;3.26;;;;;;;;;;356044;149;865881;-58
2021/06/03 00:02:05;;;;;;;5.33;3.11;;;;;;;;;;359351;148;858428;-58
2021/06/03 00:03:07;;;;;;;7.57;3.31;;;;;;;;;;356350;149;858433;-58
2021/06/03 00:04:09;;;;;;;7.81;4.16;;;;;;;;;;355010;151;857507;-58
2021/06/03 00:05:10;;;;;;;10.24;3.11;;;;;;;;;;357246;148;866987;-57
2021/06/03 00:06:12;;;;;;;5.28;3.01;;;;;;;;;;358110;147;866637;-58
2021/06/03 00:07:14;;;;;;;6.01;3.56;;;;;;;;;;359273;150;858339;-58
2021/06/03 00:08:16;;;;;;;9.79;3.34;;;;;;;;;;358137;148;858987;-58
2021/06/03 00:09:18;;;;;;;6.55;3.07;;;;;;;;;;361219;147;865514;-58
2021/06/03 00:10:25;;;;;;;7.19;3.09;;;;;;;;;;359385;148;859669;-59
2021/06/03 00:11:26;;;;;;;5.51;3.23;;;;;;;;;;356831;147;866622;-58
2021/06/03 00:12:28;;;;;;;9.19;3.16;;;;;;;;;;359474;150;857348;-58
2021/06/03 00:13:30;;;;;;;7.38;3.01;;;;;;;;;;359292;147;864840;-58
2021/06/03 00:14:32;;;;;;;7.23;3.57;;;;;;;;;;356334;149;857276;-59
2021/06/03 00:15:33;;;;;;;8.45;3.33;;;;;;;;;;357137;150;857140;-59
2021/06/03 00:16:36;;;;;;;8.16;3.46;;;;;;;;;;357872;148;857424;-59
2021/06/03 00:17:38;;;;;;;8.66;3.16;;;;;;;;;;348621;151;858959;-59
2021/06/03 00:18:39;;;;;;;5.36;3.40;;;;;;;;;;358865;147;865833;-59
2021/06/03 00:19:41;;;;;;;7.73;3.21;;;;;;;;;;359312;147;864810;-60
2021/06/03 00:20:43;;;;;;;7.89;3.26;;;;;;;;;;358914;150;866704;-59
2021/06/03 00:21:44;;;;;;;7.24;3.48;;;;;;;;;;357911;150;859965;-59
2021/06/03 00:22:46;;;;;;;11.12;3.83;;;;;;;;;;359218;149;859535;-59
2021/06/03 00:23:47;;;;;;;8.14;3.34;;;;;;;;;;353135;148;864807;-58
2021/06/03 00:24:49;;;;;;;7.69;3.56;;;;;;;;;;354673;149;857507;-58
2021/06/03 00:25:51;;;;;;;10.11;3.34;;;;;;;;;;349795;150;857772;-58
2021/06/03 00:26:52;;;;;;;10.22;3.66;;;;;;;;;;360998;147;866454;-58
2021/06/03 00:27:54;;;;;;;6.06;3.33;;;;;;;;;;358422;147;867668;-58
2021/06/03 00:28:56;;;;;;;5.29;3.31;;;;;;;;;;359232;147;858523;-57
2021/06/03 00:29:57;;;;;;;7.67;3.40;;;;;;;;;;352001;150;857982;-60
2021/06/03 00:30:59;;;;;;;6.92;3.55;;;;;;;;;;356889;147;859988;-58
2021/06/03 00:32:00;;;;;;;8.02;3.03;;;;;;;;;;360976;147;866269;-58
2021/06/03 00:33:02;;;;;;;6.82;3.23;;;;;;;;;;361660;147;865585;-58
2021/06/03 00:34:04;;;;;;;7.83;3.26;;;;;;;;;;355369;151;858578;-58
2021/06/03 00:35:06;;;;;;;5.50;3.16;;;;;;;;;;356528;150;857651;-58
2021/06/03 00:36:08;;;;;;;7.84;3.04;;;;;;;;;;355310;148;866677;-64
2021/06/03 00:37:10;;;;;;;8.54;3.25;;;;;;;;;;356240;149;859724;-59
2021/06/03 00:38:12;;;;;;;7.07;3.26;;;;;;;;;;360477;149;864846;-59
2021/06/03 00:39:14;;;;;;;12.55;3.41;;;;;;;;;;355695;149;857296;-61
2021/06/03 00:40:18;;;;;;;6.38;3.34;;;;;;;;;;353072;149;857424;-59
2021/06/03 00:41:20;;;;;;;11.51;3.14;;;;;;;;;;356498;150;858252;-59
2021/06/03 00:42:21;;;;;;;7.97;3.64;;;;;;;;;;355504;148;859415;-58
2021/06/03 00:43:23;;;;;;;8.03;2.83;;;;;;;;;;357600;150;864804;-59
2021/06/03 00:44:24;;;;;;;6.86;3.33;;;;;;;;;;358259;150;865007;-58
2021/06/03 00:45:27;;;;;;;6.66;3.73;;;;;;;;;;356321;150;857463;-58
2021/06/03 00:46:30;;;;;;;6.39;3.09;;;;;;;;;;353635;151;857462;-61
2021/06/03 00:47:32;;;;;;;11.10;3.26;;;;;;;;;;355354;150;858622;-59
2021/06/03 00:48:33;;;;;;;8.24;3.29;;;;;;;;;;355879;149;857315;-59
2021/06/03 00:49:35;;;;;;;6.91;3.52;;;;;;;;;;357554;150;857864;-59
2021/06/03 00:50:39;;;;;;;5.78;3.11;;;;;;;;;;353742;150;864862;-59
2021/06/03 00:51:41;;;;;;;8.22;3.33;;;;;;;;;;356443;150;865632;-59
2021/06/03 00:52:43;;;;;;;7.51;3.49;;;;;;;;;;355529;150;863279;-59
2021/06/03 00:53:44;;;;;;;7.83;3.65;;;;;;;;;;355959;149;864801;-59
2021/06/03 00:54:46;;;;;;;7.74;3.38;;;;;;;;;;352392;151;857338;-59
2021/06/03 00:55:49;;;;;;;7.69;3.69;;;;;;;;;;352841;149;857288;-59
2021/06/03 00:56:51;;;;;;;8.15;3.50;;;;;;;;;;354696;149;857430;-59
2021/06/03 00:57:52;;;;;;;6.84;3.56;;;;;;;;;;355627;151;865572;-59
2021/06/03 00:58:54;;;;;;;6.94;3.70;;;;;;;;;;354966;148;857472;-59
2021/06/03 00:59:56;;;;;;;8.18;3.78;;;;;;;;;;355674;148;857778;-59
2021/06/03 01:00:57;;;;;;;9.47;3.71;;;;;;;;;;355988;150;857382;-59
2021/06/03 01:01:59;;;;;;;5.48;3.79;;;;;;;;;;354645;149;857249;-59
2021/06/03 01:03:01;;;;;;;8.90;3.76;;;;;;;;;;354583;150;859217;-58
2021/06/03 01:04:03;;;;;;;10.50;3.85;;;;;;;;;;358609;150;859193;-59
2021/06/03 01:05:06;;;;;;;11.56;4.14;;;;;;;;;;355399;149;861125;-59
2021/06/03 01:06:09;;;;;;;6.02;3.71;;;;;;;;;;356886;149;858102;-59
2021/06/03 01:07:10;;;;;;;6.10;3.59;;;;;;;;;;354828;150;864908;-59
2021/06/03 01:08:13;;;;;;;5.52;3.68;;;;;;;;;;355952;149;857317;-59
2021/06/03 01:09:35;;;;;;;8.11;4.00;;;;;;;;;;356280;150;857342;-59
2021/06/03 01:10:52;;;;;;;6.83;3.61;;;;;;;;;;354706;150;857319;-59
2021/06/03 01:11:56;;;;;;;7.11;3.48;;;;;;;;;;355790;151;857161;-58
2021/06/03 01:13:05;;;;;;;8.67;3.99;;;;;;;;;;356241;149;858524;-59
2021/06/03 01:14:09;;;;;;;9.14;4.50;;;;;;;;;;355251;151;866864;-58
2021/06/03 01:15:11;;;;;;;7.18;3.62;;;;;;;;;;356212;148;858016;-58
2021/06/03 01:16:13;;;;;;;8.85;3.94;;;;;;;;;;354473;149;860107;-60
2021/06/03 01:17:15;;;;;;;7.85;4.90;;;;;;;;;;358383;149;857290;-59
2021/06/03 01:18:17;;;;;;;10.39;4.21;;;;;;;;;;352825;148;861598;-59
2021/06/03 01:19:23;;;;;;;12.57;3.75;;;;;;;;;;355113;150;858866;-59
2021/06/03 01:20:25;;;;;;;10.61;3.84;;;;;;;;;;355584;150;857661;-59
2021/06/03 01:21:28;;;;;;;7.35;4.05;;;;;;;;;;353771;149;857324;-59
2021/06/03 01:22:35;;;;;;;9.02;4.31;;;;;;;;;;353003;150;857361;-58
2021/06/03 01:23:38;;;;;;;7.18;4.09;;;;;;;;;;351662;149;859183;-59
2021/06/03 01:24:46;;;;;;;8.63;3.66;;;;;;;;;;355001;150;859556;-59
2021/06/03 01:25:48;;;;;;;8.97;4.08;;;;;;;;;;355565;149;857237;-59
2021/06/03 01:26:50;;;;;;;5.82;3.94;;;;;;;;;;357932;149;857266;-59
2021/06/03 01:27:52;;;;;;;7.88;3.97;;;;;;;;;;355188;150;865402;-59
2021/06/03 01:28:54;;;;;;;5.95;3.83;;;;;;;;;;356249;149;858194;-58
2021/06/03 01:30:00;;;;;;;7.12;4.17;;;;;;;;;;354090;150;858189;-58
2021/06/03 01:31:02;;;;;;;12.98;3.99;;;;;;;;;;356194;148;864951;-59
2021/06/03 01:32:04;;;;;;;7.45;3.65;;;;;;;;;;357807;149;858850;-59
2021/06/03 01:33:07;;;;;;;5.97;3.50;;;;;;;;;;355124;150;857458;-57
2021/06/03 01:34:10;;;;;;;7.77;4.18;;;;;;;;;;355743;150;865689;-57
2021/06/03 01:35:13;;;;;;;10.87;4.11;;;;;;;;;;356441;150;858922;-59
2021/06/03 01:36:16;;;;;;;6.15;3.56;;;;;;;;;;358351;147;860393;-58
2021/06/03 01:37:18;;;;;;;7.03;3.79;;;;;;;;;;360774;149;864957;-59
2021/06/03 01:38:20;;;;;;;7.52;3.75;;;;;;;;;;358482;148;859480;-59
2021/06/03 01:39:23;;;;;;;8.47;4.01;;;;;;;;;;355370;150;864973;-58
2021/06/03 01:40:28;;;;;;;11.44;3.78;;;;;;;;;;352587;147;857819;-59
2021/06/03 01:41:29;;;;;;;13.86;4.40;;;;;;;;;;357808;149;865308;-58
2021/06/03 01:42:31;;;;;;;7.23;4.12;;;;;;;;;;356692;148;857188;-58
2021/06/03 01:43:33;;;;;;;6.88;3.63;;;;;;;;;;355256;147;857993;-59
2021/06/03 01:44:34;;;;;;;7.62;3.94;;;;;;;;;;357337;149;860448;-58
2021/06/03 01:45:36;;;;;;;6.06;4.12;;;;;;;;;;357824;150;865713;-59
2021/06/03 01:46:39;;;;;;;9.84;3.91;;;;;;;;;;358625;147;858373;-58
2021/06/03 01:47:41;;;;;;;6.58;4.20;;;;;;;;;;359182;150;860689;-58
2021/06/03 01:48:42;;;;;;;11.49;4.43;;;;;;;;;;360262;147;865149;-59
2021/06/03 01:49:44;;;;;;;6.09;4.06;;;;;;;;;;357605;150;865000;-60
2021/06/03 01:50:47;;;;;;;10.76;4.40;;;;;;;;;;356785;150;857271;-59
2021/06/03 01:51:48;;;;;;;7.37;3.85;;;;;;;;;;358748;147;857379;-58
2021/06/03 01:52:50;;;;;;;9.21;4.14;;;;;;;;;;360036;147;865120;-59
2021/06/03 02:13:23;;;;;;;6.04;3.14;;;;;;;12.06;59.75;100190.13;374989;142;879616;-58
2021/06/03 02:14:28;;;;;;;7.01;3.33;;;;;;;11.99;59.72;100191.88;358773;144;860578;-59
2021/06/03 02:15:33;;;;;;;5.16;3.70;;;;;;;12.00;59.67;100197.97;363741;145;858981;-58
2021/06/03 02:16:42;;;;;;;5.38;3.79;;;;;;;11.98;59.65;100194.50;362086;145;858254;-59
2021/06/03 02:17:46;;;;;;;9.65;4.06;;;;;;;11.99;59.68;100193.63;362841;145;857434;-59
2021/06/03 02:18:54;;;;;;;8.05;4.25;;;;;;;11.98;59.71;100192.75;361991;147;857674;-59
2021/06/03 02:19:57;;;;;;;6.67;3.77;;;;;;;;;;364916;145;857179;-60
2021/06/03 02:20:59;;;;;;;13.89;4.91;;;;;;;;;;363643;145;857222;-57
2021/06/03 02:22:01;;;;;;;8.41;3.96;;;;;;;;;;363698;145;865182;-58
2021/06/03 02:23:02;;;;;;;8.03;4.09;;;;;;;;;;361762;145;860843;-58
2021/06/03 02:24:05;;;;;;;10.08;4.04;;;;;;;;;;360489;147;858996;-59
2021/06/03 02:25:06;;;;;;;9.07;4.01;;;;;;;;;;362782;145;858403;-59
2021/06/03 02:26:08;;;;;;;6.54;3.80;;;;;;;;;;361686;145;860130;-59
2021/06/03 02:27:10;;;;;;;6.39;4.11;;;;;;;;;;364237;144;857664;-60
2021/06/03 02:28:12;;;;;;;9.77;4.34;;;;;;;;;;364175;144;857479;-61
2021/06/03 02:29:15;;;;;;;7.57;4.04;;;;;;;;;;366302;144;857254;-60
2021/06/03 02:30:18;;;;;;;11.39;3.85;;;;;;;;;;361824;145;858107;-61
2021/06/03 02:31:20;;;;;;;9.85;3.52;;;;;;;;;;359004;148;858870;-60
2021/06/03 02:32:22;;;;;;;10.65;3.73;;;;;;;;;;351437;150;858837;-58
2021/06/03 02:33:23;;;;;;;7.02;4.06;;;;;;;;;;356189;148;857567;-58
2021/06/03 02:34:25;;;;;;;10.14;3.87;;;;;;;;;;360781;147;864878;-59
2021/06/03 02:35:27;;;;;;;8.16;4.01;;;;;;;;;;358929;147;857387;-59
2021/06/03 02:36:29;;;;;;;8.76;4.07;;;;;;;;;;363460;147;857285;-56
2021/06/03 02:37:31;;;;;;;8.87;3.89;;;;;;;;;;358902;147;864777;-58
2021/06/03 02:38:33;;;;;;;8.07;3.76;;;;;;;;;;356529;149;864993;-58
2021/06/03 02:39:34;;;;;;;8.81;4.10;;;;;;;;;;357590;149;866635;-59
2021/06/03 02:40:36;;;;;;;9.44;4.12;;;;;;;;;;359143;148;866743;-58
2021/06/03 02:41:38;;;;;;;10.24;4.27;;;;;;;;;;357606;147;857376;-58
2021/06/03 02:42:40;;;;;;;9.61;4.36;;;;;;;;;;354803;150;858848;-58
2021/06/03 02:43:42;;;;;;;8.59;4.08;;;;;;;;;;357840;147;858786;-57
2021/06/03 02:44:43;;;;;;;10.73;3.92;;;;;;;;;;358592;149;858472;-58
2021/06/03 02:45:45;;;;;;;9.38;4.00;;;;;;;;;;360514;147;859045;-58
2021/06/03 02:46:47;;;;;;;9.76;4.29;;;;;;;;;;360255;147;858113;-59
2021/06/03 02:47:48;;;;;;;7.28;3.85;;;;;;;;;;358952;150;863856;-59
2021/06/03 02:48:50;;;;;;;9.15;3.71;;;;;;;;;;359109;148;859133;-59
2021/06/03 02:49:52;;;;;;;5.63;3.63;;;;;;;;;;359224;147;860326;-58
2021/06/03 02:50:54;;;;;;;11.53;4.83;;;;;;;;;;358094;147;860107;-59
2021/06/03 02:51:56;;;;;;;10.63;4.38;;;;;;;;;;357503;149;859622;-60
2021/06/03 02:52:57;;;;;;;10.23;4.15;;;;;;;;;;358000;147;857787;-60
2021/06/03 02:53:59;;;;;;;11.12;3.99;;;;;;;;;;357560;148;866106;-59
2021/06/03 02:55:00;;;;;;;6.16;3.96;;;;;;;;;;358680;148;859093;-58
2021/06/03 02:56:02;;;;;;;6.75;4.16;;;;;;;;;;359994;147;859235;-58
2021/06/03 02:57:04;;;;;;;11.60;4.26;;;;;;;;;;360315;148;865467;-58
2021/06/03 02:58:06;;;;;;;7.15;4.09;;;;;;;;;;362339;147;865120;-58
2021/06/03 02:59:07;;;;;;;8.04;4.11;;;;;;;;;;360156;147;857448;-56
2021/06/03 03:00:11;;;;;;;6.29;4.15;;;;;;;;;;359372;147;857697;-57
2021/06/03 03:01:13;;;;;;;7.41;4.26;;;;;;;;;;359283;147;865964;-57
2021/06/03 03:02:14;;;;;;;11.12;4.39;;;;;;;;;;358873;147;857217;-57
2021/06/03 03:03:17;;;;;;;6.28;4.96;;;;;;;;;;359182;149;866814;-57
2021/06/03 03:04:19;;;;;;;5.94;3.98;;;;;;;;;;359225;147;859035;-56
2021/06/03 03:05:20;;;;;;;13.33;4.09;;;;;;;;;;360184;147;856123;-56
2021/06/03 03:06:22;;;;;;;8.83;4.10;;;;;;;;;;360220;147;856806;-55
2021/06/03 03:07:24;;;;;;;11.63;4.09;;;;;;;;;;358775;147;864509;-55
2021/06/03 03:08:26;;;;;;;10.29;4.33;;;;;;;;;;359461;148;856684;-56
2021/06/03 03:09:27;;;;;;;7.21;4.21;;;;;;;;;;356781;151;863809;-56
2021/06/03 03:10:32;;;;;;;7.57;4.16;;;;;;;;;;358152;147;863771;-56
2021/06/03 03:13:23;;;;;;;9.66;4.53;;;;;;;12.59;58.80;100209.46;375631;141;881517;-57
2021/06/03 03:14:25;;;;;;;9.38;4.35;;;;;;;12.51;58.64;100207.81;366006;147;858561;-56
2021/06/03 03:15:27;;;;;;;7.98;3.99;;;;;;;12.51;58.71;100210.41;366956;144;857325;-57
2021/06/03 03:16:30;;;;;;;6.26;3.66;;;;;;;12.52;58.69;100217.33;367282;144;865043;-59
2021/06/03 03:17:32;;;;;;;9.51;4.66;;;;;;;12.56;58.56;100221.61;365960;147;858889;-58
2021/06/03 03:18:35;;;;;;;7.73;4.49;;;;;;;12.59;58.74;100212.91;366721;144;866548;-57
2021/06/03 03:19:37;;;;;;;7.87;4.49;;;;;;;12.61;58.48;100220.70;365805;144;857301;-58
2021/06/03 03:20:40;;;;;;;11.23;3.80;;;;;;;12.63;58.32;100213.74;365600;144;857837;-57
2021/06/03 03:21:42;;;;;;;7.89;4.25;;;;;;;12.67;58.37;100218.02;367043;144;857311;-58
2021/06/03 03:22:44;;;;;;;9.27;4.14;;;;;;;12.68;58.29;100217.14;365925;144;858962;-58
2021/06/03 03:23:46;;;;;;;5.32;3.90;;;;;;;12.73;57.96;100217.10;366334;144;867225;-58
2021/06/03 03:24:47;;;;;;;10.85;4.89;;;;;;;12.75;58.05;100215.34;365852;144;857294;-60
2021/06/03 03:25:49;;;;;;;5.74;3.83;;;;;;;12.78;57.96;100213.55;365993;144;865197;-60
2021/06/03 03:26:51;;;;;;;8.89;3.55;;;;;;;12.81;57.79;100215.27;368225;144;865539;-61
2021/06/03 03:27:53;;;;;;;7.27;4.35;;;;;;;12.82;57.70;100220.42;368672;144;858561;-58
2021/06/03 03:28:55;;;;;;;7.33;3.81;;;;;;;12.82;57.70;100220.42;365924;144;858669;-59
2021/06/03 03:29:57;;;;;;;6.48;3.86;;;;;;;12.85;57.62;100216.94;366079;144;858025;-60
2021/06/03 03:30:59;;;;;;;7.06;3.22;;;;;;;12.88;57.55;100214.30;366289;144;866062;-61
2021/06/03 03:32:01;;;;;;;8.63;3.49;;;;;;;12.90;57.50;100216.86;364036;144;857369;-59
2021/06/03 03:33:02;;;;;;;6.03;3.44;;;;;;;12.92;57.23;100210.78;362664;144;857785;-58
2021/06/03 03:34:04;;;;;;;7.51;3.55;;;;;;;;;;362219;144;865021;-58
2021/06/03 03:35:06;;;;;;;6.07;3.22;;;;;;;;;;363808;147;864892;-58
2021/06/03 03:36:09;;;;;;;7.82;3.26;;;;;;;;;;365097;144;857887;-57
2021/06/03 03:37:10;;;;;;;6.09;3.10;;;;;;;;;;356010;148;860953;-60
2021/06/03 03:38:12;;;;;;;4.46;2.87;;;;;;;;;;362673;144;864822;-59
2021/06/03 03:39:14;;;;;;;7.61;3.55;;;;;;;;;;361887;144;858192;-58
2021/06/03 03:40:18;;;;;;;5.72;3.07;;;;;;;;;;361116;144;860118;-55
2021/06/03 03:41:20;;;;;;;8.63;3.95;;;;;;;;;;363366;144;858178;-58
2021/06/03 03:42:22;;;;;;;5.07;3.26;;;;;;;;;;362237;147;857436;-56
2021/06/03 03:43:23;;;;;;;4.56;2.97;;;;;;;;;;362101;144;865307;-57
2021/06/03 03:44:25;;;;;;;7.53;2.93;;;;;;;;;;362720;147;857396;-55
2021/06/03 03:45:27;;;;;;;8.05;3.26;;;;;;;;;;361068;146;857404;-56
2021/06/03 03:46:29;;;;;;;8.03;3.05;;;;;;;;;;362654;144;857395;-57
2021/06/03 03:47:31;;;;;;;5.35;2.86;;;;;;;;;;365480;147;857885;-57
2021/06/03 03:48:33;;;;;;;6.38;3.07;;;;;;;;;;361866;144;865223;-57
2021/06/03 03:49:34;;;;;;;4.12;2.56;;;;;;;;;;359104;148;858509;-56
2021/06/03 03:50:36;;;;;;;4.99;3.08;;;;;;;;;;359925;147;860275;-56
2021/06/03 03:51:38;;;;;;;5.50;2.61;;;;;;;;;;360172;144;859342;-58
2021/06/03 03:52:40;;;;;;;4.07;2.73;;;;;;;;;;360853;147;866073;-57
2021/06/03 03:53:42;;;;;;;6.21;2.77;;;;;;;;;;365430;147;859311;-57
2021/06/03 03:54:43;;;;;;;6.50;2.75;;;;;;;;;;362932;144;858605;-56
2021/06/03 03:55:45;;;;;;;5.47;2.80;;;;;;;;;;361313;148;858929;-56
2021/06/03 03:56:47;;;;;;;5.45;2.83;;;;;;;;;;363008;147;859303;-55
2021/06/03 03:57:48;;;;;;;7.09;3.01;;;;;;;;;;360766;144;865380;-57
2021/06/03 03:58:50;;;;;;;5.39;2.98;;;;;;;;;;355133;150;857248;-57
2021/06/03 03:59:51;;;;;;;5.31;3.27;;;;;;;;;;355043;148;857317;-60
2021/06/03 04:00:53;;;;;;;5.11;2.46;;;;;;;;;;355875;148;864878;-56
2021/06/03 04:01:55;;;;;;;4.05;2.62;;;;;;;;;;355602;150;864840;-54
2021/06/03 04:02:56;;;;;;;5.32;2.75;;;;;;;;;;355669;147;857373;-58
2021/06/03 04:03:58;;;;;;;6.60;2.63;;;;;;;;;;355172;149;859439;-57
2021/06/03 04:05:00;;;;;;;4.42;2.23;;;;;;;;;;364169;144;857489;-57
2021/06/03 04:06:02;;;;;;;3.49;2.41;;;;;;;;;;362206;144;866725;-59
2021/06/03 04:07:04;;;;;;;3.13;2.37;;;;;;;;;;362232;148;866217;-57
2021/06/03 04:08:05;;;;;;;9.05;3.17;;;;;;;;;;359076;150;860719;-58
2021/06/03 04:09:07;;;;;;;4.45;2.11;;;;;;;;;;360429;144;856765;-58
2021/06/03 04:10:11;;;;;;;10.85;3.08;;;;;;;;;;359896;148;858030;-56
2021/06/03 04:11:13;;;;;;;5.89;2.64;;;;;;;;;;359637;147;857756;-58
2021/06/03 04:12:14;;;;;;;3.92;2.30;;;;;;;;;;357468;147;864819;-61
2021/06/03 04:13:16;;;;;;;5.13;2.92;;;;;;;;;;352707;150;859905;-55
2021/06/03 04:14:18;;;;;;;5.32;2.40;;;;;;;;;;356378;148;864786;-57
2021/06/03 04:15:19;;;;;;;6.38;3.19;;;;;;;;;;355230;148;865775;-57
2021/06/03 04:16:22;;;;;;;4.34;2.70;;;;;;;;;;353619;148;866628;-57
2021/06/03 04:17:24;;;;;;;3.98;2.72;;;;;;;;;;358376;147;865071;-57
2021/06/03 04:18:26;;;;;;;9.44;2.90;;;;;;;;;;356325;147;857295;-56
2021/06/03 04:19:30;;;;;;;5.06;2.30;;;;;;;;;;357015;147;859007;-57
2021/06/03 04:20:33;;;;;;;6.71;2.79;;;;;;;;;;356512;147;857315;-59
2021/06/03 04:21:35;;;;;;;3.48;2.62;;;;;;;;;;356046;147;859078;-57
2021/06/03 04:34:06;;;;;;;4.21;2.41;;;;;;;14.49;52.94;100234.30;374761;142;966248;-59
2021/06/03 04:35:08;;;;;;;10.31;2.67;;;;;;;14.44;53.00;100233.53;367573;144;859248;-60
2021/06/03 04:36:10;;;;;;;3.55;2.41;;;;;;;14.47;53.10;100243.90;364547;144;857648;-61
2021/06/03 04:37:12;;;;;;;4.91;2.37;;;;;;;14.54;52.93;100235.07;366003;145;860214;-60
2021/06/03 04:38:14;;;;;;;5.20;2.42;;;;;;;14.55;53.00;100242.00;365300;144;865245;-60
2021/06/03 04:39:16;;;;;;;3.34;2.34;;;;;;;14.59;53.01;100240.17;363622;145;864772;-62
2021/06/03 04:40:20;;;;;;;2.52;2.32;;;;;;;14.64;52.67;100235.73;366588;144;865010;-64
2021/06/03 04:41:22;;;;;;;4.21;2.68;;;;;;;14.58;52.70;100238.45;364876;144;857311;-67
2021/06/03 04:42:24;;;;;;;8.14;3.02;;;;;;;14.60;52.98;100236.68;365723;144;865672;-64
2021/06/03 04:43:26;;;;;;;7.47;2.25;;;;;;;14.49;52.75;100236.91;366865;144;864805;-59
2021/06/03 04:44:28;;;;;;;10.04;1.93;;;;;;;14.60;53.01;100239.28;367784;144;857358;-60
2021/06/03 04:45:34;;;;;;;5.74;2.69;;;;;;;14.62;52.07;100242.72;367758;144;858913;-59
2021/06/03 04:46:35;;;;;;;5.32;2.39;;;;;;;14.62;52.07;100242.72;359769;146;865030;-60
2021/06/03 04:47:37;;;;;;;8.84;2.46;;;;;;;14.69;52.17;100243.47;363326;146;859611;-60
2021/06/03 04:48:39;;;;;;;4.86;2.43;;;;;;;14.72;52.46;100243.44;364794;145;864853;-60
2021/06/03 04:49:41;;;;;;;3.87;2.13;;;;;;;14.76;52.55;100237.27;365792;144;864916;-59
2021/06/03 04:50:45;;;;;;;5.48;2.54;;;;;;;14.79;51.22;100241.55;364333;144;858076;-58
2021/06/03 04:51:47;;;;;;;4.72;2.11;;;;;;;14.83;51.40;100243.20;360554;145;857437;-62
2021/06/03 04:52:49;;;;;;;4.59;2.06;;;;;;;14.85;51.72;100244.90;359064;146;857573;-61
2021/06/03 04:53:51;;;;;;;9.23;2.50;;;;;;;14.89;51.77;100246.55;360934;146;866200;-61
2021/06/03 04:54:58;;;;;;;4.05;2.07;;;;;;;14.93;51.76;100244.75;364938;145;857987;-62
2021/06/03 04:56:00;;;;;;;6.31;1.98;;;;;;;14.95;51.47;100248.19;361283;145;864871;-61
2021/06/03 04:57:02;;;;;;;3.07;2.17;;;;;;;14.98;51.69;100239.42;356165;148;858371;-63
2021/06/03 04:58:05;;;;;;;3.94;1.95;;;;;;;14.95;51.92;100239.48;355450;149;856650;-63
2021/06/03 04:59:07;;;;;;;3.93;2.17;;;;;;;15.00;51.92;100241.13;354593;149;859318;-62
2021/06/03 05:00:21;;;;;;;3.70;2.16;;;;;;;15.04;51.61;100245.38;351105;149;865735;-63
2021/06/03 05:01:23;;;;;;;3.30;1.98;;;;;;;15.07;50.77;100240.98;350410;150;856200;-64
2021/06/03 05:02:25;;;;;;;5.83;1.89;;;;;;;15.11;51.41;100242.64;352711;148;857413;-63
2021/06/03 05:03:27;;;;;;;3.86;1.92;;;;;;;15.15;51.42;100239.91;354375;148;857509;-63
2021/06/03 05:04:29;;;;;;;3.75;1.88;;;;;;;15.19;51.41;100238.95;354770;149;859169;-62
2021/06/03 05:05:30;;;;;;;5.30;2.23;;;;;;;15.21;51.60;100244.14;352512;148;866453;-61
2021/06/03 05:06:33;;;;;;;4.81;2.43;;;;;;;15.23;50.79;100244.97;354925;148;857314;-62
2021/06/03 05:07:35;;;;;;;4.10;2.44;;;;;;;15.27;50.60;100246.62;354122;148;864896;-62
2021/06/03 05:08:37;;;;;;;7.26;2.36;;;;;;;15.29;50.95;100234.39;354246;150;864971;-61
2021/06/03 05:09:38;;;;;;;6.25;2.61;;;;;;;;;;355215;151;864962;-62
2021/06/03 05:10:40;;;;;;;3.57;1.96;;;;;;;;;;354017;149;865549;-62
2021/06/03 05:11:42;;;;;;;5.06;2.14;;;;;;;;;;356429;148;858859;-62
2021/06/03 05:12:44;;;;;;;3.29;2.21;;;;;;;;;;359342;148;857257;-61
2021/06/03 05:13:45;;;;;;;5.34;2.51;;;;;;;;;;350880;151;857483;-60
2021/06/03 05:14:47;;;;;;;6.48;2.29;;;;;;;;;;349809;149;864957;-62
2021/06/03 05:15:48;;;;;;;5.05;2.26;;;;;;;;;;351501;149;857350;-62
2021/06/03 05:16:50;;;;;;;3.72;2.12;;;;;;;;;;352931;149;858827;-62
2021/06/03 05:17:53;;;;;;;4.60;2.06;;;;;;;;;;353989;150;865061;-63
2021/06/03 05:18:55;;;;;;;5.76;2.47;;;;;;;;;;352372;148;859261;-61
2021/06/03 05:19:57;;;;;;;6.77;2.04;;;;;;;;;;351570;149;866702;-61
2021/06/03 05:20:59;;;;;;;4.81;2.21;;;;;;;;;;354674;149;865147;-62
2021/06/03 05:22:00;;;;;;;6.18;2.14;;;;;;;;;;355401;151;859930;-61
2021/06/03 05:23:02;;;;;;;4.60;1.99;;;;;;;;;;354703;149;865544;-61
2021/06/03 05:24:04;;;;;;;5.89;1.99;;;;;;;;;;354819;149;858005;-61
2021/06/03 05:25:06;;;;;;;5.39;1.89;;;;;;;;;;351636;149;857887;-62
2021/06/03 05:26:08;;;;;;;10.41;2.00;;;;;;;;;;353016;151;858871;-62
2021/06/03 05:27:10;;;;;;;5.19;2.26;;;;;;;;;;348461;151;865506;-62
2021/06/03 05:28:12;;;;;;;3.01;1.80;;;;;;;;;;353604;150;858972;-62
2021/06/03 05:29:14;;;;;;;5.73;1.69;;;;;;;;;;354707;151;857390;-62
2021/06/03 05:30:17;;;;;;;4.95;2.10;;;;;;;;;;355428;148;860304;-61
2021/06/03 05:31:19;;;;;;;6.28;1.99;;;;;;;;;;355345;149;857697;-61
2021/06/03 05:32:21;;;;;;;5.84;1.96;;;;;;;;;;354817;151;860053;-61
2021/06/03 05:33:22;;;;;;;3.36;1.81;;;;;;;;;;349529;150;867060;-61
2021/06/03 05:34:24;;;;;;;6.79;2.09;;;;;;;;;;349627;151;857474;-61
2021/06/03 05:35:25;;;;;;;6.09;2.04;;;;;;;;;;355136;151;860180;-60
2021/06/03 05:36:27;;;;;;;5.45;2.05;;;;;;;;;;355686;149;858205;-59
2021/06/03 05:37:29;;;;;;;7.54;1.95;;;;;;;;;;354415;150;857295;-60
2021/06/03 05:38:31;;;;;;;6.81;2.26;;;;;;;;;;353990;149;857202;-59
2021/06/03 05:39:32;;;;;;;9.79;2.18;;;;;;;;;;355353;151;857559;-64
2021/06/03 05:40:35;;;;;;;4.21;2.11;;;;;;;;;;355200;151;859102;-61
2021/06/03 05:41:37;;;;;;;6.38;2.11;;;;;;;;;;354287;149;866807;-61
2021/06/03 05:42:39;;;;;;;5.29;2.09;;;;;;;;;;355608;151;858150;-61
2021/06/03 05:43:42;;;;;;;6.95;1.71;;;;;;;;;;355396;151;858321;-61
2021/06/03 05:44:43;;;;;;;3.44;2.02;;;;;;;;;;355113;149;859263;-61
2021/06/03 05:45:45;;;;;;;9.79;2.04;;;;;;;;;;353786;150;857244;-61
2021/06/03 05:46:47;;;;;;;4.23;1.84;;;;;;;;;;353283;151;865900;-62
2021/06/03 05:47:48;;;;;;;2.32;1.29;;;;;;;;;;354903;149;865783;-61
2021/06/03 05:48:50;;;;;;;3.72;1.74;;;;;;;;;;355450;151;860576;-61
2021/06/03 05:49:52;;;;;;;7.16;1.93;;;;;;;;;;355098;149;864763;-60
2021/06/03 05:50:53;;;;;;;6.35;1.56;;;;;;;;;;350661;150;857549;-60
2021/06/03 05:51:55;;;;;;;9.08;1.84;;;;;;;;;;355577;150;865199;-61
2021/06/03 05:52:57;;;;;;;10.49;1.81;;;;;;;;;;351973;148;865048;-59
2021/06/03 05:53:58;;;;;;;3.61;1.70;;;;;;;;;;353629;150;857239;-61
2021/06/03 05:55:00;;;;;;;5.60;1.90;;;;;;;;;;352260;150;857445;-62
2021/06/03 05:56:02;;;;;;;3.79;1.83;;;;;;;;;;351592;151;857471;-63
2021/06/03 05:57:04;;;;;;;3.92;1.61;;;;;;;;;;354069;149;857920;-64
2021/06/03 05:58:05;;;;;;;3.61;1.55;;;;;;;;;;353698;150;865947;-62
2021/06/03 05:59:07;;;;;;;10.35;1.80;;;;;;;;;;349352;151;857911;-62
2021/06/03 06:00:10;;;;;;;5.70;1.72;;;;;;;;;;351906;150;857370;-62
2021/06/03 06:01:12;;;;;;;8.65;1.89;;;;;;;;;;349932;149;857283;-60
2021/06/03 06:02:20;;;;;;;4.22;1.84;;;;;;;;;;348925;151;860638;-63
2021/06/03 06:03:23;;;;;;;3.81;1.64;;;;;;;;;;351751;149;857579;-59
2021/06/03 06:06:46;;;;;;;5.94;1.74;;;;;;;;;;352034;150;865480;-58
2021/06/03 06:07:47;;;;;;;3.16;1.56;;;;;;;;;;354581;151;858068;-58
2021/06/03 06:08:50;;;;;;;4.56;1.75;;;;;;;;;;355091;149;865198;-59
2021/06/03 06:09:51;;;;;;;3.80;1.65;;;;;;;;;;348972;150;857327;-59
2021/06/03 06:10:53;;;;;;;3.95;1.54;;;;;;;;;;353631;149;857238;-58
2021/06/03 06:11:54;;;;;;;4.30;1.99;;;;;;;;;;350058;149;865324;-58
2021/06/03 06:12:56;;;;;;;4.18;1.78;;;;;;;;;;355138;150;857451;-58
2021/06/03 06:13:58;;;;;;;3.41;1.99;;;;;;;;;;354432;151;860065;-59
2021/06/03 06:14:59;;;;;;;4.01;1.78;;;;;;;;;;353403;150;865630;-58
2021/06/03 06:16:01;;;;;;;2.59;1.47;;;;;;;;;;353818;150;857380;-59
2021/06/03 06:17:03;;;;;;;4.11;1.55;;;;;;;;;;354942;150;857918;-59
2021/06/03 06:18:05;;;;;;;4.24;1.62;;;;;;;;;;347897;151;857439;-59
2021/06/03 06:19:07;;;;;;;3.21;1.57;;;;;;;;;;350821;151;857359;-59
2021/06/03 06:20:10;;;;;;;5.17;1.72;;;;;;;;;;351246;151;865182;-58
2021/06/03 06:21:14;;;;;;;4.46;1.53;;;;;;;;;;354107;149;857878;-58
2021/06/03 06:22:16;;;;;;;2.97;1.72;;;;;;;;;;352754;150;865965;-58
2021/06/03 06:23:18;;;;;;;4.02;1.61;;;;;;;;;;354597;149;859419;-58
2021/06/03 06:24:20;;;;;;;3.85;1.77;;;;;;;;;;354707;149;856341;-58